sensor_id;sensor_type;location;lat;lon;timestamp;pressure;altitude;pressure_sealevel;temperature;humidity
68965;BME280;56017;48.680;8.998;2023-02-07T00:02:33;98440;;;0.8;82.5
68965;BME280;56017;48.680;8.998;2023-02-07T00:05:11;98450;;;0.7;82
68965;BME280;56017;48.680;8.998;2023-02-07T00:07:36;98440;;;0.5;82
68965;BME280;56017;48.680;8.998;2023-02-07T00:10:13;98450;;;0.4;82.5
68965;BME280;56017;48.680;8.998;2023-02-07T00:12:37;98460;;;0.3;82.5
68965;BME280;56017;48.680;8.998;2023-02-07T00:15:15;98460;;;0.3;82.5
68965;BME280;56017;48.680;8.998;2023-02-07T00:17:39;98460;;;0.2;82.5
68965;BME280;56017;48.680;8.998;2023-02-07T00:20:17;98460;;;0.1;82.5
68965;BME280;56017;48.680;8.998;2023-02-07T00:22:42;98460;;;0.1;82.5
68965;BME280;56017;48.680;8.998;2023-02-07T00:25:19;98450;;;0;82.5
68965;BME280;56017;48.680;8.998;2023-02-07T00:27:43;98450;;;0;82.5
68965;BME280;56017;48.680;8.998;2023-02-07T00:30:14;98450;;;0;82.5
68965;BME280;56017;48.680;8.998;2023-02-07T00:35:23;98440;;;-0.1;82
68965;BME280;56017;48.680;8.998;2023-02-07T00:37:47;98430;;;-0.2;82
68965;BME280;56017;48.680;8.998;2023-02-07T00:40:25;98430;;;-0.2;82
68965;BME280;56017;48.680;8.998;2023-02-07T00:42:49;98430;;;-0.2;82
68965;BME280;56017;48.680;8.998;2023-02-07T00:47:51;98430;;;-0.4;82.5
68965;BME280;56017;48.680;8.998;2023-02-07T00:50:22;98430;;;-0.4;82.5
68965;BME280;56017;48.680;8.998;2023-02-07T00:53:00;98440;;;-0.5;82.5
68965;BME280;56017;48.680;8.998;2023-02-07T00:55:24;98440;;;-0.5;82.5
68965;BME280;56017;48.680;8.998;2023-02-07T00:57:55;98440;;;-0.5;82
68965;BME280;56017;48.680;8.998;2023-02-07T01:00:33;98440;;;-0.5;82
68965;BME280;56017;48.680;8.998;2023-02-07T01:02:57;98440;;;-0.6;82
68965;BME280;56017;48.680;8.998;2023-02-07T01:05:35;98440;;;-0.6;82
68965;BME280;56017;48.680;8.998;2023-02-07T01:07:59;98440;;;-0.6;82
68965;BME280;56017;48.680;8.998;2023-02-07T01:10:38;98440;;;-0.6;82
68965;BME280;56017;48.680;8.998;2023-02-07T01:13:01;98440;;;-0.6;82
68965;BME280;56017;48.680;8.998;2023-02-07T01:15:35;98430;;;-0.7;82
68965;BME280;56017;48.680;8.998;2023-02-07T01:18:09;98430;;;-0.7;82
68965;BME280;56017;48.680;8.998;2023-02-07T01:20:41;98430;;;-0.7;82
68965;BME280;56017;48.680;8.998;2023-02-07T01:23:05;98420;;;-0.7;82
68965;BME280;56017;48.680;8.998;2023-02-07T01:25:36;98420;;;-0.7;81.5
68965;BME280;56017;48.680;8.998;2023-02-07T01:28:07;98400;;;-0.7;81.5
68965;BME280;56017;48.680;8.998;2023-02-07T01:30:39;98390;;;-0.7;81.5
68965;BME280;56017;48.680;8.998;2023-02-07T01:33:09;98390;;;-0.8;81.5
68965;BME280;56017;48.680;8.998;2023-02-07T01:35:40;98400;;;-0.8;81.5
68965;BME280;56017;48.680;8.998;2023-02-07T01:40:42;98410;;;-0.9;82
68965;BME280;56017;48.680;8.998;2023-02-07T01:43:21;98410;;;-0.9;82
68965;BME280;56017;48.680;8.998;2023-02-07T01:45:44;98420;;;-0.7;82.5
68965;BME280;56017;48.680;8.998;2023-02-07T01:48:17;98420;;;-0.6;82.5
68965;BME280;56017;48.680;8.998;2023-02-07T01:50:47;98420;;;-0.4;82.5
68965;BME280;56017;48.680;8.998;2023-02-07T01:53:23;98430;;;-0.2;82.5
68965;BME280;56017;48.680;8.998;2023-02-07T01:56:00;98430;;;-0.1;82.5
68965;BME280;56017;48.680;8.998;2023-02-07T01:58:23;98440;;;0;82.5
68965;BME280;56017;48.680;8.998;2023-02-07T02:01:00;98440;;;0;82.5
68965;BME280;56017;48.680;8.998;2023-02-07T02:05:53;98430;;;0;82.5
68965;BME280;56017;48.680;8.998;2023-02-07T02:08:24;98440;;;0.1;82.5
68965;BME280;56017;48.680;8.998;2023-02-07T02:13:29;98450;;;0;82.5
68965;BME280;56017;48.680;8.998;2023-02-07T02:18:29;98460;;;0.1;83
68965;BME280;56017;48.680;8.998;2023-02-07T02:21:09;98460;;;0.1;83
68965;BME280;56017;48.680;8.998;2023-02-07T02:23:31;98460;;;0.1;82.5
68965;BME280;56017;48.680;8.998;2023-02-07T02:26:01;98460;;;0;82.5
68965;BME280;56017;48.680;8.998;2023-02-07T02:28:43;98450;;;0;82.5
68965;BME280;56017;48.680;8.998;2023-02-07T02:33:27;98450;;;-0.2;82.5
68965;BME280;56017;48.680;8.998;2023-02-07T02:36:12;98450;;;-0.3;82.5
68965;BME280;56017;48.680;8.998;2023-02-07T02:38:31;98440;;;-0.4;82.5
68965;BME280;56017;48.680;8.998;2023-02-07T02:41:04;98450;;;-0.5;82.5
68965;BME280;56017;48.680;8.998;2023-02-07T02:43:29;98450;;;-0.6;82.5
68965;BME280;56017;48.680;8.998;2023-02-07T02:45:59;98440;;;-0.6;82.5
68965;BME280;56017;48.680;8.998;2023-02-07T02:48:26;98440;;;-0.7;82.5
68965;BME280;56017;48.680;8.998;2023-02-07T02:50:57;98430;;;-0.8;82.5
68965;BME280;56017;48.680;8.998;2023-02-07T02:53:27;98430;;;-0.9;82.5
68965;BME280;56017;48.680;8.998;2023-02-07T02:56:32;98430;;;-0.9;82.5
68965;BME280;56017;48.680;8.998;2023-02-07T03:01:07;98420;;;-1.1;82
68965;BME280;56017;48.680;8.998;2023-02-07T03:03:39;98430;;;-1.2;82
68965;BME280;56017;48.680;8.998;2023-02-07T03:06:04;98430;;;-1.2;82
68965;BME280;56017;48.680;8.998;2023-02-07T03:08:30;98440;;;-1.2;82
68965;BME280;56017;48.680;8.998;2023-02-07T03:11:09;98430;;;-1.3;82
68965;BME280;56017;48.680;8.998;2023-02-07T03:16:16;98430;;;-1.2;82
68965;BME280;56017;48.680;8.998;2023-02-07T03:21:23;98440;;;-1.3;82
68965;BME280;56017;48.680;8.998;2023-02-07T03:23:29;98450;;;-1.4;82
68965;BME280;56017;48.680;8.998;2023-02-07T03:25:59;98440;;;-1.4;82
68965;BME280;56017;48.680;8.998;2023-02-07T03:28:29;98450;;;-1.4;82
68965;BME280;56017;48.680;8.998;2023-02-07T03:31:00;98460;;;-1.4;82
68965;BME280;56017;48.680;8.998;2023-02-07T03:33:30;98460;;;-1.4;82
68965;BME280;56017;48.680;8.998;2023-02-07T03:36:06;98450;;;-1.5;82
68965;BME280;56017;48.680;8.998;2023-02-07T03:38:30;98460;;;-1.5;82
68965;BME280;56017;48.680;8.998;2023-02-07T03:41:04;98470;;;-1.6;82
68965;BME280;56017;48.680;8.998;2023-02-07T03:43:31;98460;;;-1.5;82
68965;BME280;56017;48.680;8.998;2023-02-07T03:46:01;98470;;;-1.5;81.5
68965;BME280;56017;48.680;8.998;2023-02-07T03:48:25;98460;;;-1.5;81.5
68965;BME280;56017;48.680;8.998;2023-02-07T03:50:56;98470;;;-1.6;81.5
68965;BME280;56017;48.680;8.998;2023-02-07T03:53:27;98470;;;-1.7;81.5
68965;BME280;56017;48.680;8.998;2023-02-07T03:55:58;98470;;;-1.7;81.5
68965;BME280;56017;48.680;8.998;2023-02-07T03:58:29;98470;;;-1.7;81.5
68965;BME280;56017;48.680;8.998;2023-02-07T04:01:00;98480;;;-1.7;81.5
68965;BME280;56017;48.680;8.998;2023-02-07T04:03:31;98480;;;-1.7;81
68965;BME280;56017;48.680;8.998;2023-02-07T04:06:02;98480;;;-1.7;81
68965;BME280;56017;48.680;8.998;2023-02-07T04:08:33;98480;;;-1.8;81
68965;BME280;56017;48.680;8.998;2023-02-07T04:11:10;98480;;;-1.8;81
68965;BME280;56017;48.680;8.998;2023-02-07T04:13:35;98480;;;-1.9;81
68965;BME280;56017;48.680;8.998;2023-02-07T04:16:06;98470;;;-1.9;81
68965;BME280;56017;48.680;8.998;2023-02-07T04:18:37;98470;;;-1.9;81
68965;BME280;56017;48.680;8.998;2023-02-07T04:21:08;98460;;;-1.8;80.5
68965;BME280;56017;48.680;8.998;2023-02-07T04:23:39;98460;;;-1.9;80.5
68965;BME280;56017;48.680;8.998;2023-02-07T04:26:10;98460;;;-2;81
68965;BME280;56017;48.680;8.998;2023-02-07T04:28:41;98450;;;-2.1;81
68965;BME280;56017;48.680;8.998;2023-02-07T04:31:12;98450;;;-2.1;81
68965;BME280;56017;48.680;8.998;2023-02-07T04:33:43;98440;;;-2;80.5
68965;BME280;56017;48.680;8.998;2023-02-07T04:36:14;98460;;;-1.9;80
68965;BME280;56017;48.680;8.998;2023-02-07T04:38:45;98460;;;-2;80
68965;BME280;56017;48.680;8.998;2023-02-07T04:41:16;98460;;;-2;80
68965;BME280;56017;48.680;8.998;2023-02-07T04:43:47;98460;;;-2;80
68965;BME280;56017;48.680;8.998;2023-02-07T04:46:18;98460;;;-2;80
68965;BME280;56017;48.680;8.998;2023-02-07T04:48:48;98460;;;-2.1;80
68965;BME280;56017;48.680;8.998;2023-02-07T04:51:19;98470;;;-2.1;80
68965;BME280;56017;48.680;8.998;2023-02-07T04:53:50;98460;;;-2.2;80
68965;BME280;56017;48.680;8.998;2023-02-07T04:56:28;98460;;;-2.3;80
68965;BME280;56017;48.680;8.998;2023-02-07T04:58:52;98460;;;-2.4;80.5
68965;BME280;56017;48.680;8.998;2023-02-07T05:01:23;98450;;;-2.4;80.5
68965;BME280;56017;48.680;8.998;2023-02-07T05:03:54;98450;;;-2.5;80.5
68965;BME280;56017;48.680;8.998;2023-02-07T05:06:32;98450;;;-2.5;80.5
68965;BME280;56017;48.680;8.998;2023-02-07T05:08:56;98450;;;-2.4;80
68965;BME280;56017;48.680;8.998;2023-02-07T05:11:27;98450;;;-2.4;80
68965;BME280;56017;48.680;8.998;2023-02-07T05:13:58;98450;;;-2.4;80
68965;BME280;56017;48.680;8.998;2023-02-07T05:16:29;98450;;;-2.3;80
68965;BME280;56017;48.680;8.998;2023-02-07T05:19:00;98450;;;-2.3;80
68965;BME280;56017;48.680;8.998;2023-02-07T05:21:31;98450;;;-2.4;80
68965;BME280;56017;48.680;8.998;2023-02-07T05:24:02;98460;;;-2.4;80
68965;BME280;56017;48.680;8.998;2023-02-07T05:26:33;98460;;;-2.4;80
68965;BME280;56017;48.680;8.998;2023-02-07T05:29:04;98470;;;-2.3;79.5
68965;BME280;56017;48.680;8.998;2023-02-07T05:34:06;98460;;;-2.2;79.5
68965;BME280;56017;48.680;8.998;2023-02-07T05:36:37;98470;;;-2.3;79
68965;BME280;56017;48.680;8.998;2023-02-07T05:39:08;98460;;;-2.4;79.5
68965;BME280;56017;48.680;8.998;2023-02-07T05:41:39;98470;;;-2.6;80
68965;BME280;56017;48.680;8.998;2023-02-07T05:44:10;98470;;;-2.6;80
68965;BME280;56017;48.680;8.998;2023-02-07T05:46:41;98490;;;-2.7;80
68965;BME280;56017;48.680;8.998;2023-02-07T05:49:12;98480;;;-2.8;80
68965;BME280;56017;48.680;8.998;2023-02-07T05:51:50;98480;;;-2.9;80.5
68965;BME280;56017;48.680;8.998;2023-02-07T05:54:14;98480;;;-2.9;80.5
68965;BME280;56017;48.680;8.998;2023-02-07T05:56:45;98480;;;-2.8;80
68965;BME280;56017;48.680;8.998;2023-02-07T05:59:16;98480;;;-2.8;80
68965;BME280;56017;48.680;8.998;2023-02-07T06:04:18;98480;;;-2.8;80
68965;BME280;56017;48.680;8.998;2023-02-07T06:06:49;98480;;;-2.8;79.5
68965;BME280;56017;48.680;8.998;2023-02-07T06:09:20;98480;;;-2.9;79.5
68965;BME280;56017;48.680;8.998;2023-02-07T06:11:51;98470;;;-3.1;80
68965;BME280;56017;48.680;8.998;2023-02-07T06:14:22;98470;;;-3.2;80.5
68965;BME280;56017;48.680;8.998;2023-02-07T06:16:59;98470;;;-3.2;80.5
68965;BME280;56017;48.680;8.998;2023-02-07T06:19:24;98460;;;-3.3;80.5
68965;BME280;56017;48.680;8.998;2023-02-07T06:21:55;98460;;;-3.3;81
68965;BME280;56017;48.680;8.998;2023-02-07T06:24:26;98460;;;-3.3;81
68965;BME280;56017;48.680;8.998;2023-02-07T06:27:03;98460;;;-3.3;80.5
68965;BME280;56017;48.680;8.998;2023-02-07T06:29:28;98460;;;-3.2;80.5
68965;BME280;56017;48.680;8.998;2023-02-07T06:34:30;98460;;;-3.4;81
68965;BME280;56017;48.680;8.998;2023-02-07T06:37:01;98460;;;-3.3;81
68965;BME280;56017;48.680;8.998;2023-02-07T06:39:32;98460;;;-3.2;80.5
68965;BME280;56017;48.680;8.998;2023-02-07T06:42:03;98460;;;-3.2;80.5
68965;BME280;56017;48.680;8.998;2023-02-07T06:44:34;98460;;;-3.1;80
68965;BME280;56017;48.680;8.998;2023-02-07T06:47:05;98470;;;-3.1;80
68965;BME280;56017;48.680;8.998;2023-02-07T06:49:36;98470;;;-3.2;80
68965;BME280;56017;48.680;8.998;2023-02-07T06:52:07;98480;;;-3.2;80
68965;BME280;56017;48.680;8.998;2023-02-07T06:54:37;98490;;;-3.2;80
68965;BME280;56017;48.680;8.998;2023-02-07T06:57:15;98490;;;-3.4;80.5
68965;BME280;56017;48.680;8.998;2023-02-07T06:59:39;98500;;;-3.3;80.5
68965;BME280;56017;48.680;8.998;2023-02-07T07:02:11;98500;;;-3.3;80.5
68965;BME280;56017;48.680;8.998;2023-02-07T07:04:41;98500;;;-3.4;80.5
68965;BME280;56017;48.680;8.998;2023-02-07T07:07:12;98500;;;-3.4;80.5
68965;BME280;56017;48.680;8.998;2023-02-07T07:09:43;98490;;;-3.5;81
68965;BME280;56017;48.680;8.998;2023-02-07T07:12:21;98490;;;-3.4;81
68965;BME280;56017;48.680;8.998;2023-02-07T07:14:45;98490;;;-3.5;80.5
68965;BME280;56017;48.680;8.998;2023-02-07T07:17:23;98490;;;-3.5;81
68965;BME280;56017;48.680;8.998;2023-02-07T07:19:47;98500;;;-3.4;81
68965;BME280;56017;48.680;8.998;2023-02-07T07:22:18;98500;;;-3.2;80
68965;BME280;56017;48.680;8.998;2023-02-07T07:24:49;98500;;;-3.2;80
68965;BME280;56017;48.680;8.998;2023-02-07T07:27:27;98500;;;-3.2;80
68965;BME280;56017;48.680;8.998;2023-02-07T07:29:52;98510;;;-3.2;80
68965;BME280;56017;48.680;8.998;2023-02-07T07:34:53;98520;;;-3.1;80.5
68965;BME280;56017;48.680;8.998;2023-02-07T07:37:24;98520;;;-3.1;80.5
68965;BME280;56017;48.680;8.998;2023-02-07T07:40:02;98510;;;-3;80.5
68965;BME280;56017;48.680;8.998;2023-02-07T07:42:33;98510;;;-3;80.5
68965;BME280;56017;48.680;8.998;2023-02-07T07:45:04;98510;;;-3;80.5
68965;BME280;56017;48.680;8.998;2023-02-07T07:47:28;98510;;;-2.9;81
68965;BME280;56017;48.680;8.998;2023-02-07T07:49:59;98500;;;-2.7;80.5
68965;BME280;56017;48.680;8.998;2023-02-07T07:52:30;98500;;;-2.5;80.5
68965;BME280;56017;48.680;8.998;2023-02-07T07:55:01;98500;;;-2.4;80
68965;BME280;56017;48.680;8.998;2023-02-07T07:57:39;98500;;;-2.4;80
68965;BME280;56017;48.680;8.998;2023-02-07T08:00:03;98500;;;-2.4;80.5
68965;BME280;56017;48.680;8.998;2023-02-07T08:02:34;98500;;;-2.3;80.5
68965;BME280;56017;48.680;8.998;2023-02-07T08:05:05;98490;;;-2.3;80.5
68965;BME280;56017;48.680;8.998;2023-02-07T08:07:42;98490;;;-2.2;81
68965;BME280;56017;48.680;8.998;2023-02-07T08:10:07;98500;;;-2;81
68965;BME280;56017;48.680;8.998;2023-02-07T08:12:38;98490;;;-1.8;80.5
68965;BME280;56017;48.680;8.998;2023-02-07T08:15:09;98500;;;-1.6;80
68965;BME280;56017;48.680;8.998;2023-02-07T08:17:40;98500;;;-1.5;79.5
68965;BME280;56017;48.680;8.998;2023-02-07T08:20:11;98510;;;-1.5;79.5
68965;BME280;56017;48.680;8.998;2023-02-07T08:22:42;98510;;;-1.5;79.5
68965;BME280;56017;48.680;8.998;2023-02-07T08:25:13;98520;;;-1.6;79.5
68965;BME280;56017;48.680;8.998;2023-02-07T08:27:44;98520;;;-1.6;80
68965;BME280;56017;48.680;8.998;2023-02-07T08:30:15;98530;;;-1.5;80.5
68965;BME280;56017;48.680;8.998;2023-02-07T08:32:46;98530;;;-1.5;80.5
68965;BME280;56017;48.680;8.998;2023-02-07T08:35:17;98530;;;-1.4;80.5
68965;BME280;56017;48.680;8.998;2023-02-07T08:37:48;98540;;;-1.4;80.5
68965;BME280;56017;48.680;8.998;2023-02-07T08:40:19;98540;;;-1.2;80.5
68965;BME280;56017;48.680;8.998;2023-02-07T08:42:50;98540;;;-1.2;80.5
68965;BME280;56017;48.680;8.998;2023-02-07T08:45:21;98540;;;-1.1;80.5
68965;BME280;56017;48.680;8.998;2023-02-07T08:47:52;98540;;;-0.9;80.5
68965;BME280;56017;48.680;8.998;2023-02-07T08:50:23;98540;;;-0.8;80.5
68965;BME280;56017;48.680;8.998;2023-02-07T08:52:54;98550;;;-0.7;80
68965;BME280;56017;48.680;8.998;2023-02-07T08:55:25;98560;;;-0.6;80.5
68965;BME280;56017;48.680;8.998;2023-02-07T08:57:56;98560;;;-0.6;80.5
68965;BME280;56017;48.680;8.998;2023-02-07T09:00:26;98570;;;-0.5;81
68965;BME280;56017;48.680;8.998;2023-02-07T09:02:57;98570;;;-0.4;81
68965;BME280;56017;48.680;8.998;2023-02-07T09:05:29;98560;;;-0.2;81
68965;BME280;56017;48.680;8.998;2023-02-07T09:08:00;98560;;;-0.1;80.5
68965;BME280;56017;48.680;8.998;2023-02-07T09:10:30;98560;;;0;80.5
68965;BME280;56017;48.680;8.998;2023-02-07T09:13:01;98550;;;0.1;80.5
68965;BME280;56017;48.680;8.998;2023-02-07T09:15:32;98540;;;0;80.5
68965;BME280;56017;48.680;8.998;2023-02-07T09:20:34;98530;;;0;80.5
68965;BME280;56017;48.680;8.998;2023-02-07T09:23:05;98530;;;0;81
68965;BME280;56017;48.680;8.998;2023-02-07T09:25:36;98520;;;0.1;81
68965;BME280;56017;48.680;8.998;2023-02-07T09:28:07;98520;;;0.4;80.5
68965;BME280;56017;48.680;8.998;2023-02-07T09:30:39;98520;;;0.5;80
68965;BME280;56017;48.680;8.998;2023-02-07T09:33:09;98520;;;0.6;80.5
68965;BME280;56017;48.680;8.998;2023-02-07T09:35:41;98530;;;0.8;80
68965;BME280;56017;48.680;8.998;2023-02-07T09:38:12;98540;;;0.9;80.5
68965;BME280;56017;48.680;8.998;2023-02-07T09:40:42;98530;;;1;80.5
68965;BME280;56017;48.680;8.998;2023-02-07T09:43:18;98540;;;1.2;80
68965;BME280;56017;48.680;8.998;2023-02-07T09:45:45;98540;;;1.8;80
68965;BME280;56017;48.680;8.998;2023-02-07T09:50:53;98540;;;3.4;78
68965;BME280;56017;48.680;8.998;2023-02-07T09:53:22;98550;;;3.7;77.5
68965;BME280;56017;48.680;8.998;2023-02-07T09:55:55;98550;;;4.2;77
68965;BME280;56017;48.680;8.998;2023-02-07T09:58:20;98540;;;5.1;76
68965;BME280;56017;48.680;8.998;2023-02-07T10:01:00;98540;;;6.2;74.5
68965;BME280;56017;48.680;8.998;2023-02-07T10:03:22;98550;;;6.8;74.5
68965;BME280;56017;48.680;8.998;2023-02-07T10:05:58;98550;;;7.2;74.5
68965;BME280;56017;48.680;8.998;2023-02-07T10:08:22;98550;;;7.9;74
68965;BME280;56017;48.680;8.998;2023-02-07T10:11:06;98540;;;8.6;71.5
68965;BME280;56017;48.680;8.998;2023-02-07T10:13:28;98540;;;9;70
68965;BME280;56017;48.680;8.998;2023-02-07T10:16:20;98540;;;9.2;68.5
68965;BME280;56017;48.680;8.998;2023-02-07T10:18:28;98530;;;9.1;70
68965;BME280;56017;48.680;8.998;2023-02-07T10:21:01;98530;;;8;73
68965;BME280;56017;48.680;8.998;2023-02-07T10:23:31;98540;;;7.6;73.5
68965;BME280;56017;48.680;8.998;2023-02-07T10:28:34;98550;;;6.9;74
68965;BME280;56017;48.680;8.998;2023-02-07T10:31:11;98550;;;6.2;76
68965;BME280;56017;48.680;8.998;2023-02-07T10:33:31;98550;;;6.1;75.5
68965;BME280;56017;48.680;8.998;2023-02-07T10:36:12;98550;;;5.8;76
68965;BME280;56017;48.680;8.998;2023-02-07T10:38:40;98550;;;5.6;76
68965;BME280;56017;48.680;8.998;2023-02-07T10:41:16;98550;;;5.7;75
68965;BME280;56017;48.680;8.998;2023-02-07T10:43:35;98550;;;5;76
68965;BME280;56017;48.680;8.998;2023-02-07T10:46:14;98550;;;4.4;77.5
68965;BME280;56017;48.680;8.998;2023-02-07T10:48:37;98560;;;4.2;78
68965;BME280;56017;48.680;8.998;2023-02-07T10:51:20;98550;;;4.6;77
68965;BME280;56017;48.680;8.998;2023-02-07T10:53:40;98550;;;5.1;76
68965;BME280;56017;48.680;8.998;2023-02-07T10:56:15;98550;;;6.1;74
68965;BME280;56017;48.680;8.998;2023-02-07T10:58:41;98550;;;6.3;74
68965;BME280;56017;48.680;8.998;2023-02-07T11:01:19;98550;;;6.1;75
68965;BME280;56017;48.680;8.998;2023-02-07T11:03:43;98550;;;5.6;76.5
68965;BME280;56017;48.680;8.998;2023-02-07T11:06:25;98560;;;4.9;79.5
68965;BME280;56017;48.680;8.998;2023-02-07T11:08:45;98560;;;5.1;79.5
68965;BME280;56017;48.680;8.998;2023-02-07T11:11:24;98560;;;5.4;78.5
68965;BME280;56017;48.680;8.998;2023-02-07T11:13:48;98560;;;5.5;78
68965;BME280;56017;48.680;8.998;2023-02-07T11:18:53;98560;;;5.7;77.5
68965;BME280;56017;48.680;8.998;2023-02-07T11:21:34;98550;;;5.6;78
68965;BME280;56017;48.680;8.998;2023-02-07T11:23:51;98550;;;5.3;80
68965;BME280;56017;48.680;8.998;2023-02-07T11:26:29;98560;;;5;81
68965;BME280;56017;48.680;8.998;2023-02-07T11:31:31;98560;;;5.1;80.5
68965;BME280;56017;48.680;8.998;2023-02-07T11:34:02;98560;;;5.1;79.5
68965;BME280;56017;48.680;8.998;2023-02-07T11:36:32;98560;;;4.9;79.5
68965;BME280;56017;48.680;8.998;2023-02-07T11:38:57;98560;;;4.8;79.5
68965;BME280;56017;48.680;8.998;2023-02-07T11:41:34;98560;;;4.9;80
68965;BME280;56017;48.680;8.998;2023-02-07T11:44:01;98550;;;5.1;80
68965;BME280;56017;48.680;8.998;2023-02-07T11:49:01;98540;;;6.3;78
68965;BME280;56017;48.680;8.998;2023-02-07T11:51:31;98540;;;6.1;78.5
68965;BME280;56017;48.680;8.998;2023-02-07T11:56:53;98550;;;5.5;80
68965;BME280;56017;48.680;8.998;2023-02-07T11:59:17;98550;;;5.7;81
68965;BME280;56017;48.680;8.998;2023-02-07T12:01:50;98540;;;5.9;80.5
68965;BME280;56017;48.680;8.998;2023-02-07T12:04:12;98550;;;6.3;79.5
68965;BME280;56017;48.680;8.998;2023-02-07T12:06:56;98540;;;7.4;78
68965;BME280;56017;48.680;8.998;2023-02-07T12:09:23;98540;;;8.3;75.5
68965;BME280;56017;48.680;8.998;2023-02-07T12:11:47;98540;;;8.4;75.5
68965;BME280;56017;48.680;8.998;2023-02-07T12:14:14;98550;;;8.4;76.5
68965;BME280;56017;48.680;8.998;2023-02-07T12:16:55;98540;;;7.6;77
68965;BME280;56017;48.680;8.998;2023-02-07T12:21:36;98540;;;7.1;78.5
68965;BME280;56017;48.680;8.998;2023-02-07T12:24:14;98540;;;7.3;78.5
68965;BME280;56017;48.680;8.998;2023-02-07T12:26:46;98540;;;6.9;79
68965;BME280;56017;48.680;8.998;2023-02-07T12:29:22;98540;;;6.9;79.5
68965;BME280;56017;48.680;8.998;2023-02-07T12:34:16;98530;;;8.1;76.5
68965;BME280;56017;48.680;8.998;2023-02-07T12:41:47;98530;;;9.5;77.5
68965;BME280;56017;48.680;8.998;2023-02-07T12:46:50;98510;;;11.4;71.5
68965;BME280;56017;48.680;8.998;2023-02-07T12:49:19;98500;;;11;72.5
68965;BME280;56017;48.680;8.998;2023-02-07T12:54:22;98510;;;11.2;72.5
68965;BME280;56017;48.680;8.998;2023-02-07T12:59:24;98510;;;12.2;68.5
68965;BME280;56017;48.680;8.998;2023-02-07T13:01:59;98500;;;13;67
68965;BME280;56017;48.680;8.998;2023-02-07T13:06:57;98490;;;13.5;65
68965;BME280;56017;48.680;8.998;2023-02-07T13:12:01;98490;;;11.6;73
68965;BME280;56017;48.680;8.998;2023-02-07T13:14:35;98480;;;11.9;74
68965;BME280;56017;48.680;8.998;2023-02-07T13:18:02;98480;;;12.4;73.5
68965;BME280;56017;48.680;8.998;2023-02-07T13:19:31;98480;;;13.2;70
68965;BME280;56017;48.680;8.998;2023-02-07T13:22:01;98480;;;13.5;69
68965;BME280;56017;48.680;8.998;2023-02-07T13:24:29;98480;;;13.6;69.5
68965;BME280;56017;48.680;8.998;2023-02-07T13:27:01;98480;;;13.4;67.5
68965;BME280;56017;48.680;8.998;2023-02-07T13:32:04;98490;;;11.6;70
68965;BME280;56017;48.680;8.998;2023-02-07T13:37:04;98490;;;10.7;73.5
68965;BME280;56017;48.680;8.998;2023-02-07T13:39:41;98490;;;12;71.5
68965;BME280;56017;48.680;8.998;2023-02-07T13:42:15;98490;;;13.3;69.5
68965;BME280;56017;48.680;8.998;2023-02-07T13:44:44;98490;;;13;68.5
68965;BME280;56017;48.680;8.998;2023-02-07T13:47:11;98490;;;13;69
68965;BME280;56017;48.680;8.998;2023-02-07T13:55:00;98490;;;14.8;67
68965;BME280;56017;48.680;8.998;2023-02-07T14:02:21;98480;;;16.6;65
68965;BME280;56017;48.680;8.998;2023-02-07T14:04:46;98480;;;17.2;63.5
68965;BME280;56017;48.680;8.998;2023-02-07T14:07:20;98490;;;17.2;64.5
68965;BME280;56017;48.680;8.998;2023-02-07T14:09:48;98490;;;17.5;64
68965;BME280;56017;48.680;8.998;2023-02-07T14:12:20;98490;;;17;61
68965;BME280;56017;48.680;8.998;2023-02-07T14:22:23;98480;;;13.4;67.5
68965;BME280;56017;48.680;8.998;2023-02-07T14:27:26;98470;;;14.3;66.5
68965;BME280;56017;48.680;8.998;2023-02-07T14:30:08;98470;;;14.9;64.5
68965;BME280;56017;48.680;8.998;2023-02-07T14:32:30;98470;;;14.9;64
68965;BME280;56017;48.680;8.998;2023-02-07T14:35:02;98480;;;13.7;65.5
68965;BME280;56017;48.680;8.998;2023-02-07T14:40:04;98480;;;11.5;72.5
68965;BME280;56017;48.680;8.998;2023-02-07T14:42:29;98480;;;10.9;72.5
68965;BME280;56017;48.680;8.998;2023-02-07T14:47:31;98490;;;9.2;73
68965;BME280;56017;48.680;8.998;2023-02-07T14:50:02;98490;;;8.6;74
68965;BME280;56017;48.680;8.998;2023-02-07T14:52:34;98490;;;8;76
68965;BME280;56017;48.680;8.998;2023-02-07T14:55:05;98490;;;8.4;75
68965;BME280;56017;48.680;8.998;2023-02-07T14:57:38;98490;;;8.2;75.5
68965;BME280;56017;48.680;8.998;2023-02-07T15:00:20;98490;;;8.3;75.5
68965;BME280;56017;48.680;8.998;2023-02-07T15:05:23;98500;;;9.1;75
68965;BME280;56017;48.680;8.998;2023-02-07T15:07:39;98500;;;9.1;74.5
68965;BME280;56017;48.680;8.998;2023-02-07T15:10:31;98500;;;8.6;75.5
68965;BME280;56017;48.680;8.998;2023-02-07T15:12:40;98510;;;8.4;75.5
68965;BME280;56017;48.680;8.998;2023-02-07T15:17:42;98520;;;7.4;76.5
68965;BME280;56017;48.680;8.998;2023-02-07T15:20:21;98510;;;7.1;77.5
68965;BME280;56017;48.680;8.998;2023-02-07T15:22:51;98510;;;7.2;77.5
68965;BME280;56017;48.680;8.998;2023-02-07T15:30:23;98520;;;6.5;77.5
68965;BME280;56017;48.680;8.998;2023-02-07T15:32:48;98520;;;6.6;77.5
68965;BME280;56017;48.680;8.998;2023-02-07T15:35:34;98520;;;8.3;76
68965;BME280;56017;48.680;8.998;2023-02-07T15:37:50;98510;;;9.2;76
68965;BME280;56017;48.680;8.998;2023-02-07T15:40:27;98510;;;9.8;76
68965;BME280;56017;48.680;8.998;2023-02-07T15:45:31;98500;;;12.5;69
68965;BME280;56017;48.680;8.998;2023-02-07T15:47:55;98500;;;12.1;70
68965;BME280;56017;48.680;8.998;2023-02-07T15:52:56;98510;;;8.2;73
68965;BME280;56017;48.680;8.998;2023-02-07T15:55:34;98520;;;6.4;74.5
68965;BME280;56017;48.680;8.998;2023-02-07T15:57:57;98520;;;5.3;77
68965;BME280;56017;48.680;8.998;2023-02-07T16:00:36;98530;;;4.7;78
68965;BME280;56017;48.680;8.998;2023-02-07T16:03:02;98530;;;4.2;79
68965;BME280;56017;48.680;8.998;2023-02-07T16:05:37;98530;;;3.9;79.5
68965;BME280;56017;48.680;8.998;2023-02-07T16:08:02;98530;;;3.6;80
68965;BME280;56017;48.680;8.998;2023-02-07T16:10:39;98530;;;3.3;80.5
68965;BME280;56017;48.680;8.998;2023-02-07T16:13:19;98530;;;3.1;81
68965;BME280;56017;48.680;8.998;2023-02-07T16:15:57;98540;;;3;81
68965;BME280;56017;48.680;8.998;2023-02-07T16:18:14;98540;;;2.9;81
68965;BME280;56017;48.680;8.998;2023-02-07T16:20:43;98540;;;2.8;81.5
68965;BME280;56017;48.680;8.998;2023-02-07T16:25:38;98550;;;2.6;81.5
68965;BME280;56017;48.680;8.998;2023-02-07T16:28:10;98550;;;2.4;81.5
68965;BME280;56017;48.680;8.998;2023-02-07T16:33:11;98550;;;2.3;81.5
68965;BME280;56017;48.680;8.998;2023-02-07T16:35:49;98550;;;2.2;81.5
68965;BME280;56017;48.680;8.998;2023-02-07T16:38:13;98550;;;2.1;81.5
68965;BME280;56017;48.680;8.998;2023-02-07T16:40:51;98560;;;2;81.5
68965;BME280;56017;48.680;8.998;2023-02-07T16:43:46;98560;;;2;81.5